Nichioh Maru — JD3267 — position and weather

sailwx.info

Track history (hours):
 
Tides and Currents Weather Stations Pressure Air Temp Water Temp Dewpoint Dewpoint Depression Visibility Wind Speed Wind Dir Waves Ship Positions

Nichioh Maru

Last reported at 2017-Mar-27 12:33 UTC. Time now 2017-Mar-28 00:32 UTC.
Position N 34°36' E 134°53'.

Length 170 m; draft 6.5 m.

Type: Cargo ship. MMSI: 431003232.

Date/timePositionNaut miles runAvg speedWind from/ knotsBaromVisibWave heightAir tempDewpointWater temp
2017-Mar-27 12:33N 34°36' E 134°53'1211.8
2017-Mar-27 11:33N 34°27' E 135°03'1818.7
2017-Mar-27 10:34N 34°09' E 134°59'235 5.5
2017-Mar-25 15:32N 35°04' E 139°37'1413.9
2017-Mar-25 14:33N 35°15' E 139°46'1211.8
2017-Mar-25 13:33N 35°27' E 139°46'4 3.6
2017-Mar-25 12:33N 35°30' E 139°46'0 0.0
2017-Mar-25 11:33N 35°30' E 139°46'0 0.0
2017-Mar-25 10:33N 35°30' E 139°46'0 0.0
2017-Mar-25 09:33N 35°30' E 139°46'0 0.0
2017-Mar-25 08:33N 35°30' E 139°46'0 0.0
2017-Mar-25 07:33N 35°30' E 139°46'0 0.0
2017-Mar-25 06:33N 35°30' E 139°46'0 0.0
2017-Mar-25 05:33N 35°30' E 139°46'0 0.0
2017-Mar-25 04:33N 35°30' E 139°46'4 3.9
2017-Mar-25 03:34N 35°27' E 139°43'9 9.2
2017-Mar-25 02:33N 35°19' E 139°39'0 0.2
2017-Mar-25 01:33N 35°19' E 139°39'0 0.0
2017-Mar-25 00:33N 35°19' E 139°39'0 0.0
2017-Mar-24 23:33N 35°19' E 139°39'0 0.0
2017-Mar-24 22:33N 35°19' E 139°39'0 0.0
2017-Mar-24 21:33N 35°19' E 139°39'8 7.8
2017-Mar-24 20:33N 35°14' E 139°47'24715.9
2017-Mar-24 05:05N 34°07' E 134°58'1521.4
2017-Mar-24 04:22N 34°22' E 135°01'1720.5
2017-Mar-24 03:33N 34°35' E 135°14'6 4.9
2017-Mar-24 02:22N 34°41' E 135°13'0 0.0
2017-Mar-24 01:28N 34°41' E 135°13'0 0.0
2017-Mar-24 00:28N 34°41' E 135°13'0 0.0
2017-Mar-23 23:28N 34°41' E 135°13'3 3.1
2017-Mar-23 22:33N 34°39' E 135°16'3 2.5
2017-Mar-23 21:33N 34°36' E 135°14'0 0.0
2017-Mar-23 20:33N 34°36' E 135°14'0 0.0
2017-Mar-23 19:33N 34°36' E 135°14'0 0.0
2017-Mar-23 18:27N 34°36' E 135°14'0 0.0
2017-Mar-23 17:33N 34°36' E 135°14'0 0.0
2017-Mar-23 16:21N 34°36' E 135°14'0 0.0
2017-Mar-23 15:27N 34°36' E 135°14'0 0.0
2017-Mar-23 14:09N 34°37' E 135°14'0 0.0
2017-Mar-23 13:33N 34°37' E 135°14'0 0.1
2017-Mar-23 12:33N 34°36' E 135°14'1312.8
2017-Mar-23 11:33N 34°37' E 134°59'114 6.3
2017-Mar-22 17:33N 34°03' E 132°47'1515.1
2017-Mar-22 16:34N 33°52' E 132°36'1514.9
2017-Mar-22 15:33N 33°44' E 132°20'10 0.8
2017-Mar-22 03:08N 33°48' E 132°08'1220.5
2017-Mar-22 02:33N 33°50' E 132°22'16 1.0
2017-Mar-21 10:12N 34°03' E 132°35'120 4.3
2017-Mar-20 06:06N 34°36' E 134°54'1019.1
2017-Mar-20 05:34N 34°36' E 135°06'8 7.5
2017-Mar-20 04:32N 34°41' E 135°13'0 0.0
2017-Mar-20 03:32N 34°41' E 135°13'0 0.0
2017-Mar-20 02:26N 34°41' E 135°13'6 7.0
2017-Mar-20 01:33N 34°35' E 135°15'2119.8
2017-Mar-20 00:31N 34°18' E 134°60'1919.5
2017-Mar-19 23:34N 33°60' E 134°59'229 6.5
2017-Mar-18 12:33N 34°58' E 139°28'1515.0
2017-Mar-18 11:33N 35°07' E 139°42'1111.5
2017-Mar-18 10:33N 35°18' E 139°44'1212.1
2017-Mar-18 09:33N 35°30' E 139°48'2 1.6
2017-Mar-18 08:31N 35°30' E 139°46'0 0.0
2017-Mar-18 07:31N 35°30' E 139°46'0 0.0
2017-Mar-18 06:31N 35°30' E 139°46'0 0.0
2017-Mar-18 05:31N 35°30' E 139°46'0 0.0
2017-Mar-18 04:31N 35°30' E 139°46'4 4.7
2017-Mar-18 03:33N 35°26' E 139°44'8 8.4
2017-Mar-18 02:34N 35°19' E 139°39'0 0.4
2017-Mar-18 01:32N 35°19' E 139°39'0 0.0
2017-Mar-18 00:29N 35°19' E 139°39'0 0.0
2017-Mar-17 23:32N 35°19' E 139°39'0 0.0
2017-Mar-17 22:29N 35°19' E 139°39'0 0.2
2017-Mar-17 21:33N 35°19' E 139°39'9 9.4
2017-Mar-17 20:33N 35°12' E 139°47'1515.0
2017-Mar-17 19:33N 34°59' E 139°38'  
Track history (hours):
 
Tides and Currents Weather Stations Pressure Air Temp Water Temp Dewpoint Dewpoint Depression Visibility Wind Speed Wind Dir Waves Ship Positions

Nichioh Maru

Last reported at 2017-Mar-27 12:33 UTC. Time now 2017-Mar-28 00:32 UTC.
Position N 34°36' E 134°53'.

Length 170 m; draft 6.5 m.

Type: Cargo ship. MMSI: 431003232.

Date/timePositionNaut miles runAvg speedWind from/ knotsBaromVisibWave heightAir tempDewpointWater temp
2017-Mar-27 12:33N 34°36' E 134°53'1211.8
2017-Mar-27 11:33N 34°27' E 135°03'1818.7
2017-Mar-27 10:34N 34°09' E 134°59'235 5.5
2017-Mar-25 15:32N 35°04' E 139°37'1413.9
2017-Mar-25 14:33N 35°15' E 139°46'1211.8
2017-Mar-25 13:33N 35°27' E 139°46'4 3.6
2017-Mar-25 12:33N 35°30' E 139°46'0 0.0
2017-Mar-25 11:33N 35°30' E 139°46'0 0.0
2017-Mar-25 10:33N 35°30' E 139°46'0 0.0
2017-Mar-25 09:33N 35°30' E 139°46'0 0.0
2017-Mar-25 08:33N 35°30' E 139°46'0 0.0
2017-Mar-25 07:33N 35°30' E 139°46'0 0.0
2017-Mar-25 06:33N 35°30' E 139°46'0 0.0
2017-Mar-25 05:33N 35°30' E 139°46'0 0.0
2017-Mar-25 04:33N 35°30' E 139°46'4 3.9
2017-Mar-25 03:34N 35°27' E 139°43'9 9.2
2017-Mar-25 02:33N 35°19' E 139°39'0 0.2
2017-Mar-25 01:33N 35°19' E 139°39'0 0.0
2017-Mar-25 00:33N 35°19' E 139°39'0 0.0
2017-Mar-24 23:33N 35°19' E 139°39'0 0.0
2017-Mar-24 22:33N 35°19' E 139°39'0 0.0
2017-Mar-24 21:33N 35°19' E 139°39'8 7.8
2017-Mar-24 20:33N 35°14' E 139°47'24715.9
2017-Mar-24 05:05N 34°07' E 134°58'1521.4
2017-Mar-24 04:22N 34°22' E 135°01'1720.5
2017-Mar-24 03:33N 34°35' E 135°14'6 4.9
2017-Mar-24 02:22N 34°41' E 135°13'0 0.0
2017-Mar-24 01:28N 34°41' E 135°13'0 0.0
2017-Mar-24 00:28N 34°41' E 135°13'0 0.0
2017-Mar-23 23:28N 34°41' E 135°13'3 3.1
2017-Mar-23 22:33N 34°39' E 135°16'3 2.5
2017-Mar-23 21:33N 34°36' E 135°14'0 0.0
2017-Mar-23 20:33N 34°36' E 135°14'0 0.0
2017-Mar-23 19:33N 34°36' E 135°14'0 0.0
2017-Mar-23 18:27N 34°36' E 135°14'0 0.0
2017-Mar-23 17:33N 34°36' E 135°14'0 0.0
2017-Mar-23 16:21N 34°36' E 135°14'0 0.0
2017-Mar-23 15:27N 34°36' E 135°14'0 0.0
2017-Mar-23 14:09N 34°37' E 135°14'0 0.0
2017-Mar-23 13:33N 34°37' E 135°14'0 0.1
2017-Mar-23 12:33N 34°36' E 135°14'1312.8
2017-Mar-23 11:33N 34°37' E 134°59'114 6.3
2017-Mar-22 17:33N 34°03' E 132°47'1515.1
2017-Mar-22 16:34N 33°52' E 132°36'1514.9
2017-Mar-22 15:33N 33°44' E 132°20'10 0.8
2017-Mar-22 03:08N 33°48' E 132°08'1220.5
2017-Mar-22 02:33N 33°50' E 132°22'16 1.0
2017-Mar-21 10:12N 34°03' E 132°35'120 4.3
2017-Mar-20 06:06N 34°36' E 134°54'1019.1
2017-Mar-20 05:34N 34°36' E 135°06'8 7.5
2017-Mar-20 04:32N 34°41' E 135°13'0 0.0
2017-Mar-20 03:32N 34°41' E 135°13'0 0.0
2017-Mar-20 02:26N 34°41' E 135°13'6 7.0
2017-Mar-20 01:33N 34°35' E 135°15'2119.8
2017-Mar-20 00:31N 34°18' E 134°60'1919.5
2017-Mar-19 23:34N 33°60' E 134°59'229 6.5
2017-Mar-18 12:33N 34°58' E 139°28'1515.0
2017-Mar-18 11:33N 35°07' E 139°42'1111.5
2017-Mar-18 10:33N 35°18' E 139°44'1212.1
2017-Mar-18 09:33N 35°30' E 139°48'2 1.6
2017-Mar-18 08:31N 35°30' E 139°46'0 0.0
2017-Mar-18 07:31N 35°30' E 139°46'0 0.0
2017-Mar-18 06:31N 35°30' E 139°46'0 0.0
2017-Mar-18 05:31N 35°30' E 139°46'0 0.0
2017-Mar-18 04:31N 35°30' E 139°46'4 4.7
2017-Mar-18 03:33N 35°26' E 139°44'8 8.4
2017-Mar-18 02:34N 35°19' E 139°39'0 0.4
2017-Mar-18 01:32N 35°19' E 139°39'0 0.0
2017-Mar-18 00:29N 35°19' E 139°39'0 0.0
2017-Mar-17 23:32N 35°19' E 139°39'0 0.0
2017-Mar-17 22:29N 35°19' E 139°39'0 0.2
2017-Mar-17 21:33N 35°19' E 139°39'9 9.4
2017-Mar-17 20:33N 35°12' E 139°47'1515.0
2017-Mar-17 19:33N 34°59' E 139°38'  

Dump ship's entire track history